Time;durP1;ratioP1;P1;durP2;ratioP2;P2;SDS_P1;SDS_P2;PMS_P1;PMS_P2;Temp;Humidity;BMP_temperature;BMP_pressure;BME280_temperature;BME280_humidity;BME280_pressure;Samples;Min_cycle;Max_cycle;Signal;HPM_P1;HPM_P2
2024/03/31 00:02:27;;;;;;;34.35;7.05;;;16.50;96.70;;;;;;5090751;28;20058;-70
2024/03/31 00:04:57;;;;;;;35.38;7.03;;;16.40;96.70;;;;;;5090358;28;20553;-71
2024/03/31 00:07:25;;;;;;;36.45;7.65;;;16.30;96.70;;;;;;5090325;28;20027;-70
2024/03/31 00:09:53;;;;;;;40.13;6.90;;;16.20;96.70;;;;;;5090588;28;20139;-70
2024/03/31 00:12:21;;;;;;;33.33;7.43;;;16.10;96.70;;;;;;5090215;28;20051;-70
2024/03/31 00:14:49;;;;;;;36.80;8.38;;;16.10;96.70;;;;;;5090681;28;20043;-70
2024/03/31 00:17:19;;;;;;;34.80;8.30;;;16.10;96.70;;;;;;5071599;28;20069;-70
2024/03/31 00:19:50;;;;;;;39.42;8.73;;;16.10;96.70;;;;;;5090023;28;20116;-70
2024/03/31 00:22:17;;;;;;;32.25;7.53;;;16.00;96.70;;;;;;5090799;28;20046;-70
2024/03/31 00:24:45;;;;;;;36.25;8.45;;;16.00;96.70;;;;;;5073962;28;20043;-70
2024/03/31 00:27:13;;;;;;;30.98;7.85;;;16.00;96.70;;;;;;5074717;28;20504;-70
2024/03/31 00:29:41;;;;;;;39.15;8.50;;;16.00;96.70;;;;;;5073269;28;20075;-70
2024/03/31 00:32:08;;;;;;;39.90;7.80;;;16.00;96.70;;;;;;5072593;28;20101;-70
2024/03/31 00:34:37;;;;;;;46.25;8.38;;;15.90;96.70;;;;;;5069325;28;20150;-70
2024/03/31 00:37:07;;;;;;;38.42;8.10;;;15.80;96.70;;;;;;5072365;28;20059;-70
2024/03/31 00:39:35;;;;;;;32.03;8.18;;;16.00;96.70;;;;;;5090275;28;20044;-70
2024/03/31 00:42:04;;;;;;;37.10;8.40;;;16.00;96.70;;;;;;5072671;28;20052;-70
2024/03/31 00:44:31;;;;;;;29.45;7.43;;;15.90;96.70;;;;;;5090057;27;20047;-69
2024/03/31 00:47:00;;;;;;;35.13;7.88;;;15.90;96.70;;;;;;5073290;28;20138;-70
2024/03/31 00:49:28;;;;;;;33.47;7.85;;;15.90;96.70;;;;;;5072179;28;20074;-70
2024/03/31 00:51:56;;;;;;;39.95;6.63;;;15.70;96.70;;;;;;5067249;28;20130;-70
2024/03/31 00:54:26;;;;;;;41.70;7.43;;;15.70;96.70;;;;;;5072380;28;20062;-69
2024/03/31 00:56:55;;;;;;;38.63;8.40;;;15.60;96.70;;;;;;5071807;28;20051;-70
2024/03/31 00:59:25;;;;;;;38.10;7.63;;;15.20;96.70;;;;;;5073371;28;20066;-70
2024/03/31 01:01:53;;;;;;;30.65;7.13;;;15.10;96.70;;;;;;5068944;28;20131;-70
2024/03/31 01:04:20;;;;;;;43.75;7.72;;;15.10;96.70;;;;;;5055921;28;20055;-70
2024/03/31 01:06:49;;;;;;;37.25;7.10;;;15.10;96.70;;;;;;5072985;28;20161;-70
2024/03/31 01:09:17;;;;;;;35.92;8.05;;;15.10;96.70;;;;;;5069510;28;20089;-69
2024/03/31 01:11:48;;;;;;;35.85;6.30;;;15.20;96.70;;;;;;5072109;28;20735;-70
2024/03/31 01:14:19;;;;;;;37.08;7.45;;;15.30;96.70;;;;;;5087865;28;20043;-70
2024/03/31 01:16:46;;;;;;;34.88;6.90;;;15.30;96.70;;;;;;5088822;28;20043;-70
2024/03/31 01:19:15;;;;;;;35.88;7.03;;;15.30;96.70;;;;;;5072754;28;20044;-70
2024/03/31 01:21:44;;;;;;;32.72;7.00;;;15.30;96.70;;;;;;5089188;28;20043;-70
2024/03/31 01:24:13;;;;;;;38.28;7.43;;;15.40;96.70;;;;;;5088834;28;20048;-70
2024/03/31 01:26:42;;;;;;;37.47;7.70;;;15.40;96.70;;;;;;5056409;28;20323;-70
2024/03/31 01:29:12;;;;;;;29.92;6.57;;;15.50;96.70;;;;;;5086595;28;20054;-70
2024/03/31 01:31:40;;;;;;;32.72;5.65;;;15.50;96.70;;;;;;5088818;28;20044;-70
2024/03/31 01:34:09;;;;;;;37.05;6.50;;;15.60;96.70;;;;;;5071534;28;20047;-70
2024/03/31 01:36:37;;;;;;;34.05;6.75;;;15.60;96.70;;;;;;5088132;28;20177;-70
2024/03/31 01:39:08;;;;;;;35.70;6.10;;;15.60;96.70;;;;;;5071765;28;20606;-70
2024/03/31 01:41:40;;;;;;;28.65;5.75;;;15.60;96.70;;;;;;5067470;28;20071;-70
2024/03/31 01:44:10;;;;;;;38.80;8.32;;;15.50;96.70;;;;;;5071426;28;20237;-70
2024/03/31 01:46:40;;;;;;;33.15;6.15;;;15.50;96.70;;;;;;5072507;28;20394;-70
2024/03/31 01:49:07;;;;;;;28.02;7.07;;;15.60;96.70;;;;;;5072668;28;20147;-70
2024/03/31 01:51:37;;;;;;;38.03;6.45;;;15.60;96.70;;;;;;5088240;28;20050;-69
2024/03/31 01:54:06;;;;;;;34.50;6.45;;;15.50;96.70;;;;;;5088268;27;20530;-70
2024/03/31 01:56:33;;;;;;;31.23;6.50;;;15.50;96.70;;;;;;5088634;28;20081;-69
2024/03/31 01:59:03;;;;;;;35.58;7.18;;;15.60;96.70;;;;;;5055350;28;20056;-70
2024/03/31 02:01:32;;;;;;;32.80;7.28;;;15.50;96.70;;;;;;5055635;28;20051;-70
2024/03/31 02:04:00;;;;;;;39.08;6.90;;;15.50;96.70;;;;;;5071548;28;20104;-70
2024/03/31 02:06:30;;;;;;;33.97;6.75;;;15.50;96.70;;;;;;5071212;28;20043;-69
2024/03/31 02:08:58;;;;;;;37.03;8.02;;;15.60;96.70;;;;;;5070100;28;20539;-70
2024/03/31 02:11:26;;;;;;;44.60;7.30;;;15.50;96.70;;;;;;5055025;28;20047;-69
2024/03/31 02:13:54;;;;;;;28.73;6.90;;;15.50;96.70;;;;;;5088636;28;20071;-70
2024/03/31 02:16:26;;;;;;;29.80;6.28;;;15.50;96.70;;;;;;5087773;28;20488;-70
2024/03/31 02:18:54;;;;;;;28.20;6.63;;;15.60;96.70;;;;;;5088548;28;20462;-70
2024/03/31 02:21:21;;;;;;;29.20;6.60;;;15.60;96.70;;;;;;5070554;28;20047;-70
2024/03/31 02:23:50;;;;;;;36.53;7.63;;;15.50;96.70;;;;;;5071440;28;20056;-70
2024/03/31 02:26:17;;;;;;;41.75;6.85;;;15.50;96.70;;;;;;5087926;28;20082;-70
2024/03/31 02:28:44;;;;;;;30.70;6.88;;;15.50;96.70;;;;;;5070832;28;20554;-70
2024/03/31 02:31:12;;;;;;;31.67;6.28;;;15.50;96.70;;;;;;5071113;28;20055;-70
2024/03/31 02:33:43;;;;;;;30.73;6.05;;;15.50;96.70;;;;;;5066038;28;20039;-70
2024/03/31 02:36:14;;;;;;;34.08;6.80;;;15.50;96.70;;;;;;5071156;28;20052;-70
2024/03/31 02:38:42;;;;;;;27.73;5.93;;;15.50;96.70;;;;;;5070379;28;20841;-69
2024/03/31 02:41:11;;;;;;;28.50;5.60;;;15.50;96.70;;;;;;5067859;28;20052;-70
2024/03/31 02:43:42;;;;;;;32.10;6.82;;;15.50;96.70;;;;;;5071530;28;20047;-70
2024/03/31 02:46:10;;;;;;;29.27;4.30;;;15.50;96.70;;;;;;5078206;28;20036;-69
2024/03/31 02:48:43;;;;;;;27.00;5.70;;;15.50;96.70;;;;;;5050201;28;20052;-69
2024/03/31 02:51:12;;;;;;;28.67;5.93;;;15.50;96.70;;;;;;5069974;28;20055;-69
2024/03/31 02:53:40;;;;;;;28.85;5.88;;;15.50;96.70;;;;;;5071254;28;20648;-70
2024/03/31 02:56:08;;;;;;;29.52;6.05;;;15.60;96.70;;;;;;5087768;28;20040;-70
2024/03/31 02:58:37;;;;;;;31.25;6.80;;;15.60;96.70;;;;;;5054226;28;20054;-70
2024/03/31 03:01:09;;;;;;;21.98;4.97;;;15.60;96.70;;;;;;5069735;28;20052;-69
2024/03/31 03:03:39;;;;;;;25.50;6.13;;;15.60;96.70;;;;;;5070922;28;20062;-70
2024/03/31 03:06:09;;;;;;;34.90;6.57;;;15.60;96.70;;;;;;5059117;28;20080;-70
2024/03/31 03:08:42;;;;;;;25.45;5.00;;;15.70;96.70;;;;;;5088173;28;20126;-69
2024/03/31 03:11:16;;;;;;;;;;;15.70;96.70;;;;;;5072052;28;20796;-70
2024/03/31 03:13:44;;;;;;;24.08;5.45;;;15.60;96.70;;;;;;5070894;28;20300;-70
2024/03/31 03:16:14;;;;;;;28.65;5.60;;;15.60;96.70;;;;;;5054165;28;20075;-70
2024/03/31 03:18:42;;;;;;;32.28;6.10;;;15.60;96.70;;;;;;5070657;28;20161;-70
2024/03/31 03:21:11;;;;;;;29.10;5.72;;;15.60;96.70;;;;;;5087601;28;20504;-70
2024/03/31 03:23:40;;;;;;;25.80;5.57;;;15.60;96.70;;;;;;5086967;28;20093;-70
2024/03/31 03:26:08;;;;;;;32.42;5.85;;;15.60;96.70;;;;;;5087198;28;20096;-69
2024/03/31 03:28:37;;;;;;;23.05;5.43;;;15.60;96.70;;;;;;5070232;28;20108;-70
2024/03/31 03:31:05;;;;;;;28.17;5.43;;;15.60;96.70;;;;;;5070453;28;20047;-70
2024/03/31 03:33:36;;;;;;;26.42;6.05;;;15.50;96.70;;;;;;5087634;28;20122;-70
2024/03/31 03:36:04;;;;;;;27.90;5.70;;;15.50;96.70;;;;;;5054253;28;20082;-70
2024/03/31 03:38:34;;;;;;;26.20;5.55;;;15.50;96.70;;;;;;5069850;28;20172;-69
2024/03/31 03:41:03;;;;;;;32.10;6.63;;;15.60;96.70;;;;;;5068668;28;20101;-69
2024/03/31 03:43:33;;;;;;;34.20;6.97;;;15.60;96.70;;;;;;5069983;28;20044;-70
2024/03/31 03:46:05;;;;;;;34.33;6.80;;;15.60;96.70;;;;;;5070204;28;20044;-70
2024/03/31 03:48:35;;;;;;;30.23;6.35;;;15.60;96.70;;;;;;5087399;28;20051;-70
2024/03/31 03:51:03;;;;;;;27.00;6.50;;;15.60;96.70;;;;;;5071183;28;20079;-70
2024/03/31 03:53:34;;;;;;;33.15;6.38;;;15.60;96.70;;;;;;5073985;28;21517;-69
2024/03/31 03:56:03;;;;;;;29.35;5.88;;;15.40;96.70;;;;;;5074105;28;20040;-70
2024/03/31 03:58:30;;;;;;;22.77;4.80;;;15.40;96.70;;;;;;5050602;28;20063;-70
2024/03/31 04:00:59;;;;;;;23.17;4.93;;;15.50;96.70;;;;;;5067330;28;20137;-70
2024/03/31 04:03:26;;;;;;;26.90;5.03;;;15.50;96.70;;;;;;5073308;28;20134;-69
2024/03/31 04:05:55;;;;;;;28.00;5.75;;;15.50;96.70;;;;;;5066140;28;20047;-70
2024/03/31 04:08:22;;;;;;;26.67;5.18;;;15.60;96.70;;;;;;5054387;28;20064;-69
2024/03/31 04:10:51;;;;;;;26.08;5.57;;;15.50;96.70;;;;;;5070235;28;20056;-70
2024/03/31 04:13:20;;;;;;;24.65;4.65;;;15.50;96.70;;;;;;5074182;28;20082;-70
2024/03/31 04:15:56;;;;;;;24.55;4.82;;;15.50;96.70;;;;;;5068219;28;20055;-70
2024/03/31 04:18:25;;;;;;;27.00;5.75;;;15.50;96.70;;;;;;5073252;28;20112;-70
2024/03/31 04:20:53;;;;;;;27.75;5.45;;;15.50;96.70;;;;;;5088126;28;20492;-70
2024/03/31 04:23:20;;;;;;;30.38;5.65;;;15.50;96.70;;;;;;5090295;28;20039;-70
2024/03/31 04:25:48;;;;;;;25.08;5.50;;;15.50;96.70;;;;;;5074333;28;20116;-70
2024/03/31 04:28:17;;;;;;;27.05;5.40;;;15.50;96.70;;;;;;5072833;28;20060;-69
2024/03/31 04:30:44;;;;;;;24.90;4.93;;;15.40;96.70;;;;;;5089495;28;20516;-70
2024/03/31 04:33:13;;;;;;;24.05;5.05;;;15.30;96.70;;;;;;5073686;28;20048;-70
2024/03/31 04:35:41;;;;;;;21.80;5.00;;;15.30;96.70;;;;;;5073621;28;20130;-70
2024/03/31 04:38:08;;;;;;;26.05;5.15;;;15.30;96.70;;;;;;5073456;28;20554;-70
2024/03/31 04:40:36;;;;;;;27.58;5.70;;;15.30;96.70;;;;;;5075403;28;20047;-70
2024/03/31 04:43:03;;;;;;;41.42;6.68;;;15.20;96.70;;;;;;5072382;28;20050;-69
2024/03/31 04:45:37;;;;;;;33.83;6.00;;;15.20;96.70;;;;;;5072136;28;20462;-70
2024/03/31 04:48:05;;;;;;;32.90;5.63;;;15.20;96.70;;;;;;5072048;28;20133;-70
2024/03/31 04:50:37;;;;;;;30.88;6.18;;;15.20;96.70;;;;;;5073307;28;20112;-70
2024/03/31 04:53:05;;;;;;;26.88;5.78;;;15.20;96.70;;;;;;5089766;28;20039;-70
2024/03/31 04:55:36;;;;;;;36.08;6.38;;;15.30;96.70;;;;;;5049358;28;20068;-70
2024/03/31 04:58:04;;;;;;;36.33;6.88;;;15.30;96.70;;;;;;5072923;28;20048;-70
2024/03/31 05:00:33;;;;;;;33.15;5.15;;;15.30;96.70;;;;;;5072678;28;20151;-69
2024/03/31 05:03:03;;;;;;;36.58;6.07;;;15.20;96.70;;;;;;5068695;28;20060;-70
2024/03/31 05:05:37;;;;;;;31.35;6.78;;;15.20;96.70;;;;;;5069511;28;20121;-70
2024/03/31 05:08:05;;;;;;;32.75;6.22;;;15.20;96.70;;;;;;5089270;28;20043;-70
2024/03/31 05:10:34;;;;;;;30.80;6.28;;;15.30;96.70;;;;;;5072763;28;20054;-70
2024/03/31 05:13:03;;;;;;;35.45;6.55;;;15.30;96.70;;;;;;5072245;28;20071;-70
2024/03/31 05:15:31;;;;;;;31.85;5.43;;;15.30;96.70;;;;;;5070922;28;20097;-70
2024/03/31 05:17:59;;;;;;;25.85;6.18;;;15.30;96.70;;;;;;5072863;28;20574;-70
2024/03/31 05:20:29;;;;;;;35.10;7.35;;;15.30;96.70;;;;;;5071904;28;20161;-70
2024/03/31 05:22:57;;;;;;;35.17;7.13;;;15.30;96.70;;;;;;5059873;28;20116;-70
2024/03/31 05:25:25;;;;;;;26.58;6.75;;;15.30;96.70;;;;;;5072693;28;20051;-70
2024/03/31 05:27:52;;;;;;;40.45;8.25;;;15.40;96.70;;;;;;5071864;28;20079;-70
2024/03/31 05:30:23;;;;;;;27.45;6.15;;;15.40;96.70;;;;;;5071079;28;20570;-70
2024/03/31 05:32:51;;;;;;;30.38;7.32;;;15.30;96.70;;;;;;5072602;28;20058;-70
2024/03/31 05:35:25;;;;;;;37.03;7.10;;;15.40;96.70;;;;;;5089890;28;20069;-69
2024/03/31 05:37:56;;;;;;;34.45;7.75;;;15.40;96.70;;;;;;5072239;28;20393;-70
2024/03/31 05:40:23;;;;;;;32.17;7.45;;;15.40;96.70;;;;;;5067763;28;20043;-70
2024/03/31 05:42:51;;;;;;;32.17;6.00;;;15.40;96.70;;;;;;5071924;28;20134;-70
2024/03/31 05:45:21;;;;;;;33.00;7.10;;;15.40;96.70;;;;;;5071885;28;20047;-70
2024/03/31 05:47:49;;;;;;;34.85;6.75;;;15.50;96.70;;;;;;5072007;28;20054;-70
2024/03/31 05:50:18;;;;;;;37.22;6.55;;;15.50;96.70;;;;;;5055195;28;20055;-70
2024/03/31 05:52:45;;;;;;;37.33;6.65;;;15.50;96.70;;;;;;5089017;28;20036;-69
2024/03/31 05:55:15;;;;;;;39.95;6.97;;;15.40;96.70;;;;;;5088355;28;20108;-70
2024/03/31 05:57:42;;;;;;;36.92;6.85;;;15.40;96.70;;;;;;5068804;28;20066;-70
2024/03/31 06:00:14;;;;;;;32.03;7.70;;;15.50;96.70;;;;;;5071909;28;20071;-70
2024/03/31 06:02:45;;;;;;;34.28;6.30;;;15.50;96.70;;;;;;5086008;28;20120;-70
2024/03/31 06:05:12;;;;;;;31.08;6.57;;;15.50;96.70;;;;;;5055491;28;20061;-70
2024/03/31 06:07:40;;;;;;;34.67;8.85;;;15.50;96.70;;;;;;5071603;28;20043;-70
2024/03/31 06:10:08;;;;;;;27.65;6.95;;;15.50;96.70;;;;;;5085106;28;20508;-70
2024/03/31 06:12:38;;;;;;;30.98;6.60;;;15.50;96.70;;;;;;5055058;28;20128;-70
2024/03/31 06:15:06;;;;;;;31.40;6.57;;;15.60;96.70;;;;;;5064957;28;20051;-70
2024/03/31 06:17:34;;;;;;;32.13;6.13;;;15.50;96.70;;;;;;5078690;28;20119;-70
2024/03/31 06:20:02;;;;;;;38.05;7.15;;;15.60;96.70;;;;;;5071257;28;20078;-69
2024/03/31 06:22:33;;;;;;;43.08;8.90;;;15.60;96.70;;;;;;5071225;28;20050;-69
2024/03/31 06:25:01;;;;;;;30.08;5.90;;;15.60;96.70;;;;;;5071305;28;20496;-70
2024/03/31 06:27:28;;;;;;;36.92;6.85;;;15.60;96.70;;;;;;5069585;28;20141;-70
2024/03/31 06:29:58;;;;;;;38.40;7.65;;;15.60;96.70;;;;;;5055186;28;20101;-70
2024/03/31 06:32:26;;;;;;;42.35;8.18;;;15.70;96.70;;;;;;5071869;28;20047;-70
2024/03/31 06:34:53;;;;;;;39.80;7.93;;;15.70;96.70;;;;;;5071235;28;20105;-70
2024/03/31 06:37:21;;;;;;;36.38;7.13;;;15.70;96.70;;;;;;5085384;28;20076;-70
2024/03/31 06:39:50;;;;;;;38.05;8.68;;;15.70;96.70;;;;;;5087050;28;20063;-70
2024/03/31 06:42:19;;;;;;;31.73;8.68;;;15.80;96.70;;;;;;5071478;28;20449;-69
2024/03/31 06:44:51;;;;;;;35.47;7.85;;;15.80;96.70;;;;;;5055267;28;20425;-70
2024/03/31 06:47:20;;;;;;;43.65;10.00;;;15.90;96.70;;;;;;5053409;28;20047;-70
2024/03/31 06:49:48;;;;;;;38.13;8.55;;;15.90;96.70;;;;;;5070513;27;20044;-69
2024/03/31 06:52:15;;;;;;;27.83;7.28;;;15.90;96.70;;;;;;5072091;28;20047;-70
2024/03/31 06:54:44;;;;;;;42.22;7.45;;;16.00;96.70;;;;;;5070361;28;20487;-70
2024/03/31 06:57:14;;;;;;;37.75;7.13;;;16.00;96.70;;;;;;5071622;28;20067;-70
2024/03/31 06:59:42;;;;;;;35.67;8.10;;;16.00;96.70;;;;;;5070762;28;20047;-70
2024/03/31 07:02:09;;;;;;;34.28;7.95;;;16.00;96.70;;;;;;5070595;28;20235;-69
2024/03/31 07:04:38;;;;;;;34.70;8.43;;;16.10;96.70;;;;;;5069592;28;20051;-69
2024/03/31 07:07:06;;;;;;;31.73;7.05;;;16.10;96.70;;;;;;5070072;28;20047;-70
2024/03/31 07:09:34;;;;;;;31.67;7.22;;;16.20;96.70;;;;;;5071590;28;20043;-70
2024/03/31 07:12:02;;;;;;;44.17;9.43;;;16.30;96.70;;;;;;5070656;28;20138;-70
2024/03/31 07:14:29;;;;;;;43.25;9.00;;;16.40;96.70;;;;;;5087380;28;20051;-70
2024/03/31 07:16:58;;;;;;;39.72;7.97;;;16.50;96.70;;;;;;5070401;28;20104;-69
2024/03/31 07:19:27;;;;;;;37.83;8.07;;;16.70;96.70;;;;;;5069599;28;20571;-70
2024/03/31 07:21:55;;;;;;;44.30;8.68;;;16.80;96.70;;;;;;5086612;28;20074;-70
2024/03/31 07:24:24;;;;;;;32.13;7.53;;;16.90;96.70;;;;;;5056818;28;20043;-70
2024/03/31 07:26:54;;;;;;;37.65;8.60;;;17.10;96.70;;;;;;5089619;28;20085;-69
2024/03/31 07:29:22;;;;;;;54.30;13.45;;;17.20;96.70;;;;;;5073666;28;20146;-70
2024/03/31 07:31:51;;;;;;;44.35;11.75;;;17.30;96.70;;;;;;5088990;28;20068;-70
2024/03/31 07:34:18;;;;;;;51.42;10.98;;;17.40;96.70;;;;;;5073081;28;20707;-70
2024/03/31 07:36:47;;;;;;;47.83;10.65;;;17.40;96.70;;;;;;5075071;28;20097;-69
2024/03/31 07:39:16;;;;;;;48.38;9.27;;;17.40;96.70;;;;;;5089976;28;20054;-70
2024/03/31 07:41:43;;;;;;;42.83;9.35;;;17.40;96.70;;;;;;5090973;28;20039;-69
2024/03/31 07:44:12;;;;;;;43.17;9.75;;;17.40;96.70;;;;;;5091397;28;20063;-70
2024/03/31 07:46:41;;;;;;;48.50;10.18;;;17.40;96.70;;;;;;5087523;28;20040;-70
2024/03/31 07:49:09;;;;;;;44.40;9.70;;;17.40;96.70;;;;;;5090602;28;20040;-69
2024/03/31 07:51:38;;;;;;;52.55;9.52;;;17.50;96.70;;;;;;5090610;28;20578;-69
2024/03/31 07:54:06;;;;;;;40.15;8.77;;;17.50;96.70;;;;;;5090819;28;20043;-69
2024/03/31 07:56:35;;;;;;;41.95;9.77;;;17.50;96.70;;;;;;5089614;28;20046;-70
2024/03/31 07:59:02;;;;;;;44.03;8.82;;;17.50;96.70;;;;;;5091257;28;20100;-69
2024/03/31 08:01:30;;;;;;;41.95;8.45;;;17.50;96.70;;;;;;5072571;28;20054;-69
2024/03/31 08:03:59;;;;;;;41.47;9.20;;;17.60;96.70;;;;;;5086856;28;20044;-69
2024/03/31 08:06:26;;;;;;;41.13;8.65;;;17.60;96.70;;;;;;5089740;28;20051;-70
2024/03/31 08:08:54;;;;;;;40.35;9.63;;;17.60;96.70;;;;;;5090425;28;20046;-70
2024/03/31 08:11:21;;;;;;;40.58;9.07;;;17.70;96.70;;;;;;5073839;28;20093;-70
2024/03/31 08:13:50;;;;;;;45.83;10.38;;;17.80;96.70;;;;;;5089633;28;20100;-70
2024/03/31 08:16:18;;;;;;;36.92;8.88;;;17.80;96.70;;;;;;5089743;28;20035;-70
2024/03/31 08:18:46;;;;;;;44.63;8.10;;;17.80;96.70;;;;;;5071001;28;20182;-70
2024/03/31 08:21:13;;;;;;;36.03;8.48;;;17.80;96.70;;;;;;5089368;28;20465;-70
2024/03/31 08:23:42;;;;;;;44.67;8.77;;;17.70;96.70;;;;;;5073372;28;20047;-70
2024/03/31 08:26:11;;;;;;;50.10;10.95;;;17.70;96.70;;;;;;5070883;28;20032;-70
2024/03/31 08:28:38;;;;;;;48.90;8.77;;;17.70;96.70;;;;;;5088851;28;20052;-69
2024/03/31 08:31:08;;;;;;;43.08;9.27;;;17.70;96.70;;;;;;5072289;28;20123;-69
2024/03/31 08:33:36;;;;;;;45.40;9.52;;;17.60;96.70;;;;;;5072362;28;20062;-69
2024/03/31 08:36:05;;;;;;;52.40;8.77;;;17.60;96.70;;;;;;5083815;28;20052;-71
2024/03/31 08:38:34;;;;;;;49.88;8.68;;;17.70;96.70;;;;;;5069479;28;20052;-71
2024/03/31 08:41:06;;;;;;;34.58;7.88;;;17.80;96.70;;;;;;5072212;28;20489;-69
2024/03/31 08:43:38;;;;;;;47.28;9.73;;;17.90;96.70;;;;;;5089542;28;20071;-69
2024/03/31 08:46:09;;;;;;;51.40;10.50;;;18.00;96.70;;;;;;5088158;28;20411;-70
2024/03/31 08:48:41;;;;;;;51.60;9.75;;;18.00;96.70;;;;;;5082346;28;20036;-70
2024/03/31 08:51:09;;;;;;;50.65;9.63;;;18.10;96.70;;;;;;5089273;28;20067;-70
2024/03/31 08:53:39;;;;;;;36.70;7.88;;;18.10;96.70;;;;;;5087459;28;20039;-69
2024/03/31 08:56:06;;;;;;;39.67;9.07;;;18.10;96.70;;;;;;5081211;28;20126;-70
2024/03/31 08:58:38;;;;;;;36.92;8.43;;;18.20;96.70;;;;;;5072804;28;20411;-70
2024/03/31 09:01:15;;;;;;;43.67;8.57;;;18.10;96.70;;;;;;5089102;28;20515;-72
2024/03/31 09:03:44;;;;;;;45.20;9.63;;;18.20;96.70;;;;;;5088789;28;20474;-70
2024/03/31 09:06:12;;;;;;;45.33;10.48;;;18.20;96.70;;;;;;5088106;28;20031;-69
2024/03/31 09:08:40;;;;;;;49.83;9.02;;;18.20;96.70;;;;;;5089407;28;20051;-70
2024/03/31 09:11:07;;;;;;;41.58;8.95;;;18.20;96.70;;;;;;5089928;28;20047;-74
2024/03/31 09:13:35;;;;;;;44.25;9.25;;;18.30;96.70;;;;;;5071476;28;20040;-70
2024/03/31 09:16:03;;;;;;;42.90;9.48;;;18.30;96.70;;;;;;5085235;28;20044;-69
2024/03/31 09:18:33;;;;;;;38.80;9.32;;;18.40;96.70;;;;;;5085139;28;20100;-69
2024/03/31 09:21:03;;;;;;;41.05;9.82;;;18.40;96.70;;;;;;5066691;28;20044;-70
2024/03/31 09:23:30;;;;;;;42.88;8.95;;;18.40;96.70;;;;;;5054142;28;20093;-70
2024/03/31 09:26:00;;;;;;;43.85;9.68;;;18.50;96.70;;;;;;5089036;28;20088;-70
2024/03/31 09:28:29;;;;;;;38.22;8.00;;;18.40;96.70;;;;;;5088120;28;20416;-69
2024/03/31 09:30:58;;;;;;;33.70;7.57;;;18.30;96.70;;;;;;5071482;28;20088;-70
2024/03/31 09:33:26;;;;;;;48.83;8.55;;;18.40;96.70;;;;;;5070967;28;20043;-70
2024/03/31 09:35:57;;;;;;;38.42;9.65;;;18.40;96.70;;;;;;5088400;28;20049;-70
2024/03/31 09:38:25;;;;;;;53.60;10.90;;;18.40;96.70;;;;;;5068346;28;20071;-74
2024/03/31 09:40:53;;;;;;;47.08;9.88;;;18.40;96.70;;;;;;5071793;28;20047;-71
2024/03/31 09:43:21;;;;;;;46.47;10.43;;;18.40;96.70;;;;;;5085095;28;20039;-71
2024/03/31 09:45:50;;;;;;;44.40;9.18;;;18.50;96.70;;;;;;5087021;28;20051;-71
2024/03/31 09:48:25;;;;;;;38.22;7.82;;;18.50;96.70;;;;;;5083288;28;20900;-72
2024/03/31 09:51:02;;;;;;;47.80;8.70;;;18.60;96.70;;;;;;5071748;28;20054;-71
2024/03/31 09:53:30;;;;;;;39.72;8.00;;;18.70;96.70;;;;;;5087283;28;20039;-71
2024/03/31 09:56:02;;;;;;;54.65;9.02;;;18.80;96.70;;;;;;5064570;28;20051;-71
2024/03/31 09:58:36;;;;;;;48.03;8.80;;;18.80;96.70;;;;;;5089240;28;20055;-71
2024/03/31 10:01:06;;;;;;;53.75;10.18;;;18.90;96.70;;;;;;5071076;28;20502;-70
2024/03/31 10:03:38;;;;;;;43.40;8.85;;;19.00;96.70;;;;;;5087615;28;20698;-71
2024/03/31 10:06:08;;;;;;;45.95;8.32;;;19.00;96.70;;;;;;5087289;28;20036;-70
2024/03/31 10:08:38;;;;;;;48.03;8.85;;;19.00;96.70;;;;;;5088911;28;20044;-70
2024/03/31 10:11:06;;;;;;;41.58;8.68;;;19.10;96.70;;;;;;5087993;28;20044;-71
2024/03/31 10:13:35;;;;;;;53.55;8.80;;;19.30;96.70;;;;;;5067490;28;20116;-71
2024/03/31 10:16:04;;;;;;;45.88;8.68;;;19.30;96.70;;;;;;5071235;28;20054;-69
2024/03/31 10:18:33;;;;;;;46.88;9.10;;;19.30;96.70;;;;;;5086001;27;20040;-70
2024/03/31 10:21:03;;;;;;;53.78;9.70;;;19.30;96.70;;;;;;5087389;28;20062;-70
2024/03/31 10:23:33;;;;;;;46.85;9.00;;;19.20;96.70;;;;;;5088294;28;20055;-69
2024/03/31 10:26:03;;;;;;;47.03;8.40;;;19.20;96.70;;;;;;5089036;28;20065;-71
2024/03/31 10:28:33;;;;;;;55.72;8.82;;;19.30;96.70;;;;;;5082837;28;20113;-71
2024/03/31 10:31:02;;;;;;;44.28;9.07;;;19.30;96.70;;;;;;5087177;28;20074;-70
2024/03/31 10:33:31;;;;;;;44.13;8.70;;;19.40;96.70;;;;;;5070779;28;20054;-70
2024/03/31 10:35:59;;;;;;;45.15;10.10;;;19.50;96.70;;;;;;5088048;28;20044;-70
2024/03/31 10:38:27;;;;;;;64.88;18.20;;;19.70;96.70;;;;;;5088536;28;20393;-71
2024/03/31 10:40:59;;;;;;;53.05;11.77;;;19.70;96.70;;;;;;5088465;28;20381;-70
2024/03/31 10:43:26;;;;;;;51.05;9.75;;;19.90;96.70;;;;;;5087933;28;20055;-70
2024/03/31 10:45:53;;;;;;;45.15;8.82;;;20.00;96.70;;;;;;5081575;28;20477;-70
2024/03/31 10:48:24;;;;;;;43.78;9.15;;;20.10;96.70;;;;;;5088366;28;20543;-70
2024/03/31 10:50:54;;;;;;;52.40;9.60;;;20.50;96.70;;;;;;5088589;28;20071;-70
2024/03/31 10:53:26;;;;;;;46.75;11.25;;;20.60;96.70;;;;;;5088209;28;20062;-70
2024/03/31 10:56:03;;;;;;;55.40;10.23;;;20.70;96.70;;;;;;5087644;28;20539;-69
2024/03/31 10:58:33;;;;;;;49.28;9.63;;;20.80;96.70;;;;;;5081930;28;20050;-70
2024/03/31 11:01:03;;;;;;;45.28;9.45;;;21.00;96.70;;;;;;5070515;28;20496;-69
2024/03/31 11:03:32;;;;;;;54.05;10.32;;;21.10;96.70;;;;;;5087491;28;20039;-69
2024/03/31 11:06:03;;;;;;;51.50;10.13;;;21.10;96.70;;;;;;5088247;28;20070;-69
2024/03/31 11:08:33;;;;;;;41.78;9.60;;;21.10;96.70;;;;;;5087511;28;20127;-70
2024/03/31 11:11:04;;;;;;;50.10;10.15;;;21.20;96.70;;;;;;5097485;28;20047;-68
2024/03/31 11:13:33;;;;;;;49.03;10.63;;;21.50;96.70;;;;;;5087904;28;20039;-70
2024/03/31 11:16:06;;;;;;;53.67;9.82;;;21.50;96.70;;;;;;5084119;28;20107;-69
2024/03/31 11:18:35;;;;;;;48.97;10.10;;;21.70;96.70;;;;;;5088179;28;20043;-68
2024/03/31 11:21:08;;;;;;;45.85;8.98;;;21.80;96.70;;;;;;5070575;28;20049;-70
2024/03/31 11:23:39;;;;;;;49.28;10.02;;;21.90;96.70;;;;;;5087944;28;20603;-70
2024/03/31 11:26:14;;;;;;;55.33;9.88;;;21.80;96.70;;;;;;5087972;28;20388;-68
2024/03/31 11:28:44;;;;;;;50.88;10.60;;;21.60;96.70;;;;;;5070954;28;20074;-69
2024/03/31 11:31:14;;;;;;;60.90;14.40;;;21.50;96.70;;;;;;5054535;28;20682;-69
2024/03/31 11:33:44;;;;;;;47.58;9.18;;;21.50;96.70;;;;;;5071523;28;20101;-69
2024/03/31 11:36:14;;;;;;;46.22;9.20;;;21.40;96.70;;;;;;5086428;28;20466;-69
2024/03/31 11:38:42;;;;;;;51.20;9.57;;;21.30;96.70;;;;;;5067792;28;20043;-70
2024/03/31 11:41:14;;;;;;;48.33;9.50;;;21.10;96.70;;;;;;5087593;28;20043;-69
2024/03/31 11:43:42;;;;;;;49.13;11.00;;;21.00;96.70;;;;;;5069469;28;20050;-69
2024/03/31 11:46:12;;;;;;;49.00;9.30;;;21.00;96.70;;;;;;5087715;28;20078;-70
2024/03/31 11:48:43;;;;;;;48.45;8.98;;;21.00;96.70;;;;;;5087794;28;20049;-69
2024/03/31 11:51:13;;;;;;;44.47;8.43;;;21.00;96.70;;;;;;5087783;28;20445;-69
2024/03/31 11:53:41;;;;;;;52.75;10.48;;;21.10;96.70;;;;;;5070396;28;20048;-69
2024/03/31 11:56:13;;;;;;;52.90;9.82;;;21.20;96.70;;;;;;5071003;28;20039;-70
2024/03/31 11:58:41;;;;;;;50.20;9.15;;;21.20;96.70;;;;;;5088454;28;20044;-70
2024/03/31 12:01:10;;;;;;;59.63;10.27;;;21.40;96.70;;;;;;5087839;28;20062;-69
2024/03/31 12:03:38;;;;;;;48.35;8.35;;;21.60;96.70;;;;;;5088058;28;20790;-69
2024/03/31 12:06:07;;;;;;;54.42;9.25;;;21.90;96.70;;;;;;5070906;28;20076;-70
2024/03/31 12:08:36;;;;;;;57.97;9.07;;;21.80;96.70;;;;;;5087177;28;20758;-70
2024/03/31 12:11:05;;;;;;;50.28;10.07;;;21.80;96.70;;;;;;5071369;28;20054;-69
2024/03/31 12:13:35;;;;;;;52.45;9.50;;;22.00;96.70;;;;;;5090569;28;20484;-70
2024/03/31 12:16:04;;;;;;;55.75;9.95;;;22.10;96.70;;;;;;5068608;28;20051;-70
2024/03/31 12:18:32;;;;;;;53.92;11.05;;;22.30;96.70;;;;;;5087571;28;20056;-70
2024/03/31 12:21:01;;;;;;;54.83;9.02;;;22.30;96.70;;;;;;5090706;28;20435;-69
2024/03/31 12:23:30;;;;;;;54.08;9.25;;;22.30;96.70;;;;;;5090995;28;20071;-69
2024/03/31 12:25:59;;;;;;;52.83;9.75;;;22.40;96.70;;;;;;5091362;28;20055;-70
2024/03/31 12:28:27;;;;;;;50.53;9.88;;;22.30;96.70;;;;;;5090170;28;20073;-70
2024/03/31 12:30:58;;;;;;;43.45;9.15;;;22.60;96.70;;;;;;5086460;28;20365;-70
2024/03/31 12:33:26;;;;;;;60.38;10.25;;;22.70;96.70;;;;;;5073884;28;20051;-70
2024/03/31 12:35:57;;;;;;;47.38;10.88;;;22.70;96.70;;;;;;5073659;28;20054;-70
2024/03/31 12:38:26;;;;;;;49.30;9.10;;;22.70;96.70;;;;;;5083698;28;20516;-69
2024/03/31 12:40:56;;;;;;;49.42;10.73;;;22.60;96.70;;;;;;5091043;28;20093;-69
2024/03/31 12:43:26;;;;;;;61.20;9.70;;;22.70;96.70;;;;;;5074300;28;20043;-70
2024/03/31 12:45:54;;;;;;;50.88;8.75;;;22.70;96.70;;;;;;5088948;28;20040;-70